createdAt,value
2018-10-16T00:01:41.972Z,13.70
2018-10-16T00:04:10.636Z,14.47
2018-10-16T00:06:39.192Z,14.85
2018-10-16T00:09:09.536Z,13.40
2018-10-16T00:11:42.692Z,14.53
2018-10-16T00:14:11.231Z,13.00
2018-10-16T00:16:39.817Z,15.20
2018-10-16T00:19:08.465Z,14.33
2018-10-16T00:21:36.774Z,14.03
2018-10-16T00:24:05.904Z,13.50
2018-10-16T00:26:34.488Z,14.80
2018-10-16T00:29:02.780Z,13.27
2018-10-16T00:31:31.396Z,14.20
2018-10-16T00:33:59.746Z,15.57
2018-10-16T00:36:28.035Z,14.93
2018-10-16T00:38:56.543Z,13.40
2018-10-16T00:41:24.889Z,13.90
2018-10-16T00:43:53.172Z,13.70
2018-10-16T00:46:21.984Z,13.87
2018-10-16T00:48:50.404Z,15.13
2018-10-16T00:51:19.226Z,14.53
2018-10-16T00:53:47.783Z,14.23
2018-10-16T00:56:16.118Z,16.03
2018-10-16T00:58:44.413Z,14.87
2018-10-16T01:01:12.881Z,14.90
2018-10-16T01:03:41.185Z,13.97
2018-10-16T01:06:09.606Z,13.60
2018-10-16T01:08:38.184Z,14.75
2018-10-16T01:11:10.607Z,14.07
2018-10-16T01:13:39.292Z,13.80
2018-10-16T01:16:07.984Z,15.50
2018-10-16T01:18:36.584Z,13.90
2018-10-16T01:21:05.561Z,15.47
2018-10-16T01:23:34.154Z,14.60
2018-10-16T01:26:02.509Z,14.87
2018-10-16T01:28:30.819Z,15.83
2018-10-16T01:30:59.141Z,13.20
2018-10-16T01:33:28.119Z,14.40
2018-10-16T01:35:56.735Z,14.20
2018-10-16T01:38:25.059Z,14.60
2018-10-16T01:40:53.816Z,14.13
2018-10-16T01:43:22.435Z,14.45
2018-10-16T01:45:50.738Z,14.63
2018-10-16T01:48:19.399Z,13.30
2018-10-16T01:50:48.185Z,14.77
2018-10-16T01:53:16.531Z,13.30
2018-10-16T01:55:44.948Z,14.23
2018-10-16T01:58:13.442Z,14.40
2018-10-16T02:00:41.952Z,14.43
2018-10-16T02:03:10.834Z,13.80
2018-10-16T02:05:39.137Z,13.70
2018-10-16T02:08:08.620Z,14.23
2018-10-16T02:10:37.936Z,13.20
2018-10-16T02:13:06.622Z,14.00
2018-10-16T02:15:35.197Z,13.55
2018-10-16T02:18:03.504Z,14.40
2018-10-16T02:20:31.816Z,13.33
2018-10-16T02:23:00.345Z,16.20
2018-10-16T02:25:28.659Z,14.50
2018-10-16T02:27:57.268Z,15.23
2018-10-16T02:30:26.089Z,14.43
2018-10-16T02:32:54.682Z,12.18
2018-10-16T02:35:23.318Z,13.40
2018-10-16T02:37:51.894Z,14.13
2018-10-16T02:40:20.346Z,13.43
2018-10-16T02:42:48.642Z,13.17
2018-10-16T02:45:16.974Z,13.17
2018-10-16T02:47:45.276Z,13.90
2018-10-16T02:50:13.580Z,13.70
2018-10-16T02:52:41.864Z,14.20
2018-10-16T02:55:11.607Z,14.25
2018-10-16T02:57:40.581Z,13.85
2018-10-16T03:00:09.055Z,13.40
2018-10-16T03:02:37.976Z,14.38
2018-10-16T03:05:06.800Z,13.30
2018-10-16T03:07:35.280Z,15.77
2018-10-16T03:10:04.024Z,14.27
2018-10-16T03:12:32.937Z,14.00
2018-10-16T03:15:01.421Z,13.50
2018-10-16T03:17:29.986Z,14.23
2018-10-16T03:19:58.288Z,13.60
2018-10-16T03:22:26.827Z,13.33
2018-10-16T03:24:55.179Z,13.03
2018-10-16T03:27:23.748Z,13.85
2018-10-16T03:29:52.396Z,13.00
2018-10-16T03:32:20.746Z,14.53
2018-10-16T03:34:49.535Z,12.60
2018-10-16T03:37:17.986Z,13.20
2018-10-16T03:39:46.299Z,14.10
2018-10-16T03:42:15.088Z,14.07
2018-10-16T03:44:43.380Z,12.23
2018-10-16T03:47:12.523Z,13.30
2018-10-16T03:49:41.730Z,14.50
2018-10-16T03:52:10.369Z,12.33
2018-10-16T03:54:38.734Z,13.10
2018-10-16T03:57:07.336Z,13.13
2018-10-16T03:59:35.783Z,12.53
2018-10-16T04:02:04.663Z,13.17
2018-10-16T04:04:33.246Z,13.47
2018-10-16T04:07:01.557Z,13.27
2018-10-16T04:09:30.497Z,12.30
2018-10-16T04:11:59.253Z,14.40
2018-10-16T04:14:27.822Z,12.70
2018-10-16T04:16:56.116Z,14.70
2018-10-16T04:19:24.384Z,12.30
2018-10-16T04:21:52.894Z,13.33
2018-10-16T04:24:21.178Z,14.70
2018-10-16T04:26:49.608Z,13.33
2018-10-16T04:29:18.144Z,14.47
2018-10-16T04:31:46.886Z,14.70
2018-10-16T04:34:15.478Z,14.27
2018-10-16T04:36:43.907Z,12.93
2018-10-16T04:39:14.128Z,15.13
2018-10-16T04:41:43.098Z,14.47
2018-10-16T04:44:11.533Z,14.10
2018-10-16T04:46:39.867Z,14.70
2018-10-16T04:49:08.466Z,14.55
2018-10-16T04:51:36.728Z,15.20
2018-10-16T04:54:05.304Z,13.28
2018-10-16T04:56:33.900Z,14.57
2018-10-16T04:59:02.159Z,14.13
2018-10-16T05:01:30.702Z,14.67
2018-10-16T05:03:59.022Z,13.90
2018-10-16T05:06:27.995Z,14.60
2018-10-16T05:08:56.462Z,14.10
2018-10-16T05:11:24.829Z,13.37
2018-10-16T05:13:53.371Z,14.47
2018-10-16T05:16:21.681Z,14.60
2018-10-16T05:18:50.044Z,13.90
2018-10-16T05:21:18.525Z,12.43
2018-10-16T05:23:47.054Z,14.50
2018-10-16T05:26:15.320Z,12.70
2018-10-16T05:28:43.858Z,13.07
2018-10-16T05:31:12.835Z,15.20
2018-10-16T05:33:41.482Z,13.23
2018-10-16T05:36:09.978Z,12.63
2018-10-16T05:38:38.293Z,13.87
2018-10-16T05:41:07.085Z,14.47
2018-10-16T05:43:35.628Z,14.15
2018-10-16T05:46:03.963Z,13.20
2018-10-16T05:48:32.522Z,12.90
2018-10-16T05:51:01.124Z,13.70
2018-10-16T05:53:29.405Z,14.03
2018-10-16T05:56:00.945Z,14.30
2018-10-16T05:58:29.279Z,15.63
2018-10-16T06:00:57.837Z,13.47
2018-10-16T06:03:26.325Z,16.33
2018-10-16T06:05:54.824Z,14.83
2018-10-16T06:08:23.088Z,15.73
2018-10-16T06:10:51.484Z,15.80
2018-10-16T06:13:20.197Z,18.70
2018-10-16T06:15:48.833Z,15.83
2018-10-16T06:18:17.299Z,16.67
2018-10-16T06:20:47.068Z,17.67
2018-10-16T06:23:15.684Z,16.53
2018-10-16T06:25:44.048Z,19.10
2018-10-16T06:28:22.992Z,17.43
2018-10-16T06:30:51.855Z,17.20
2018-10-16T06:33:26.473Z,18.07
2018-10-16T06:35:55.184Z,16.20
2018-10-16T06:38:23.777Z,16.02
2018-10-16T06:40:52.467Z,15.77
2018-10-16T06:43:21.239Z,15.03
2018-10-16T06:45:49.503Z,13.77
2018-10-16T06:48:18.753Z,15.25
2018-10-16T06:50:47.176Z,15.83
2018-10-16T06:53:16.101Z,15.50
2018-10-16T06:55:45.072Z,15.65
2018-10-16T06:58:13.373Z,13.50
2018-10-16T07:00:41.637Z,15.40
2018-10-16T07:03:09.959Z,13.80
2018-10-16T07:05:38.500Z,13.40
2018-10-16T07:08:06.968Z,13.00
2018-10-16T07:10:35.260Z,12.17
2018-10-16T07:13:03.885Z,11.20
2018-10-16T07:15:32.525Z,10.80
2018-10-16T07:18:00.845Z,11.33
2018-10-16T07:20:29.147Z,11.03
2018-10-16T07:22:57.692Z,9.88
2018-10-16T07:25:25.984Z,11.40
2018-10-16T07:27:54.693Z,10.60
2018-10-16T07:30:23.179Z,9.80
2018-10-16T07:32:51.591Z,9.70
2018-10-16T07:35:20.083Z,10.57
2018-10-16T07:37:48.457Z,9.30
2018-10-16T07:40:17.500Z,11.00
2018-10-16T07:42:45.820Z,9.57
2018-10-16T07:45:14.290Z,10.00
2018-10-16T07:47:42.981Z,10.50
2018-10-16T07:50:12.101Z,9.63
2018-10-16T07:52:40.708Z,9.30
2018-10-16T07:55:12.093Z,11.17
2018-10-16T07:57:41.044Z,10.43
2018-10-16T08:00:10.737Z,11.50
2018-10-16T08:02:39.755Z,10.13
2018-10-16T08:05:09.130Z,10.83
2018-10-16T08:07:37.955Z,10.73
2018-10-16T08:10:08.300Z,12.37
2018-10-16T08:12:36.680Z,11.73
2018-10-16T08:15:06.433Z,12.17
2018-10-16T08:17:35.361Z,13.40
2018-10-16T08:20:03.839Z,12.70
2018-10-16T08:22:32.200Z,12.30
2018-10-16T08:25:00.620Z,14.30
2018-10-16T08:27:28.999Z,13.30
2018-10-16T08:29:57.636Z,12.57
2018-10-16T08:32:26.238Z,12.70
2018-10-16T08:34:54.689Z,14.20
2018-10-16T08:37:32.044Z,14.13
2018-10-16T08:40:01.320Z,13.53
2018-10-16T08:42:44.174Z,13.47
2018-10-16T08:45:23.870Z,13.50
2018-10-16T08:48:03.728Z,13.00
2018-10-16T08:50:44.936Z,13.10
2018-10-16T08:53:13.620Z,12.67
2018-10-16T08:55:42.187Z,13.78
2018-10-16T08:58:10.444Z,12.30
2018-10-16T09:00:39.122Z,13.30
2018-10-16T09:03:07.773Z,10.87
2018-10-16T09:05:36.048Z,12.00
2018-10-16T09:08:04.731Z,11.90
2018-10-16T09:10:33.021Z,11.83
2018-10-16T09:13:01.745Z,13.40
2018-10-16T09:15:30.214Z,12.70
2018-10-16T09:17:58.637Z,11.93
2018-10-16T09:20:26.922Z,12.37
2018-10-16T09:22:55.208Z,12.43
2018-10-16T09:25:23.883Z,14.30
2018-10-16T09:27:52.441Z,12.58
2018-10-16T09:30:20.792Z,11.70
2018-10-16T09:32:49.372Z,13.07
2018-10-16T09:35:17.672Z,14.03
2018-10-16T09:37:46.146Z,12.10
2018-10-16T09:40:14.839Z,14.03
2018-10-16T09:42:43.119Z,13.10
2018-10-16T09:45:11.773Z,13.83
2018-10-16T09:47:40.952Z,13.38
2018-10-16T09:50:10.280Z,14.23
2018-10-16T09:52:39.213Z,13.43
2018-10-16T09:55:09.355Z,11.97
2018-10-16T09:57:38.055Z,12.37
2018-10-16T10:00:13.085Z,11.70
2018-10-16T10:02:41.491Z,13.17
2018-10-16T10:05:09.934Z,11.90
2018-10-16T10:07:38.299Z,12.20
2018-10-16T10:10:06.820Z,12.27
2018-10-16T10:12:35.365Z,12.20
2018-10-16T10:15:04.073Z,12.93
2018-10-16T10:17:32.333Z,12.40
2018-10-16T10:20:00.623Z,12.03
2018-10-16T10:22:28.909Z,11.03
2018-10-16T10:24:57.543Z,9.70
2018-10-16T10:27:26.516Z,9.67
2018-10-16T10:29:55.162Z,9.57
2018-10-16T10:32:23.580Z,9.10
2018-10-16T10:34:51.868Z,9.70
2018-10-16T10:37:20.408Z,8.93
2018-10-16T10:39:48.688Z,8.50
2018-10-16T10:42:17.749Z,10.37
2018-10-16T10:44:46.435Z,8.70
2018-10-16T10:47:14.845Z,9.57
2018-10-16T10:49:43.149Z,8.60
2018-10-16T10:52:11.428Z,8.23
2018-10-16T10:54:40.284Z,9.20
2018-10-16T10:57:09.023Z,8.53
2018-10-16T10:59:37.372Z,8.00
2018-10-16T11:02:06.014Z,8.67
2018-10-16T11:04:34.568Z,7.53
2018-10-16T11:07:03.233Z,7.67
2018-10-16T11:09:31.731Z,7.83
2018-10-16T11:12:00.348Z,8.77
2018-10-16T11:14:28.942Z,9.07
2018-10-16T11:16:57.217Z,9.83
2018-10-16T11:19:25.591Z,9.03
2018-10-16T11:21:54.092Z,9.10
2018-10-16T11:24:22.385Z,8.20
2018-10-16T11:26:50.697Z,9.20
2018-10-16T11:29:19.135Z,8.60
2018-10-16T11:31:47.796Z,7.67
2018-10-16T11:34:16.410Z,8.57
2018-10-16T11:36:44.995Z,8.03
2018-10-16T11:39:13.672Z,7.13
2018-10-16T11:41:42.075Z,8.40
2018-10-16T11:44:11.999Z,7.60
2018-10-16T11:46:42.224Z,8.60
2018-10-16T11:49:11.176Z,7.90
2018-10-16T11:51:39.471Z,8.70
2018-10-16T11:54:08.389Z,7.80
2018-10-16T11:56:37.877Z,7.35
2018-10-16T11:59:07.024Z,8.23
2018-10-16T12:01:35.324Z,7.33
2018-10-16T12:04:04.072Z,8.80
2018-10-16T12:06:32.998Z,7.55
2018-10-16T12:09:01.560Z,8.38
2018-10-16T12:11:31.183Z,7.67
2018-10-16T12:13:59.798Z,8.57
2018-10-16T12:16:31.568Z,8.60
2018-10-16T12:19:09.743Z,8.60
2018-10-16T12:21:38.182Z,7.83
2018-10-16T12:24:06.636Z,8.10
2018-10-16T12:26:35.473Z,8.40
2018-10-16T12:29:04.210Z,8.30
2018-10-16T12:31:32.652Z,8.53
2018-10-16T12:34:01.108Z,8.87
2018-10-16T12:36:29.460Z,8.50
2018-10-16T12:38:58.052Z,8.10
2018-10-16T12:41:26.524Z,6.27
2018-10-16T12:43:54.926Z,7.30
2018-10-16T12:46:23.911Z,7.12
2018-10-16T12:48:52.190Z,7.00
2018-10-16T12:51:20.728Z,7.70
2018-10-16T12:53:49.283Z,7.00
2018-10-16T12:56:17.640Z,6.57
2018-10-16T12:58:46.087Z,6.03
2018-10-16T13:01:14.838Z,6.60
2018-10-16T13:03:43.498Z,7.10
2018-10-16T13:06:12.047Z,7.30
2018-10-16T13:08:40.362Z,5.93
2018-10-16T13:11:08.722Z,7.20
2018-10-16T13:13:37.708Z,6.72
2018-10-16T13:16:06.586Z,6.70
2018-10-16T13:18:35.279Z,6.50
2018-10-16T13:21:03.839Z,5.70
2018-10-16T13:23:32.213Z,5.73
2018-10-16T13:26:00.702Z,6.23
2018-10-16T13:28:29.361Z,5.97
2018-10-16T13:30:57.808Z,6.33
2018-10-16T13:33:26.278Z,6.20
2018-10-16T13:35:54.817Z,7.08
2018-10-16T13:38:23.359Z,5.73
2018-10-16T13:40:51.671Z,5.87
2018-10-16T13:43:19.973Z,5.90
2018-10-16T13:45:48.253Z,6.40
2018-10-16T13:48:16.848Z,5.83
2018-10-16T13:50:45.112Z,6.63
2018-10-16T13:53:13.860Z,5.70
2018-10-16T13:55:42.217Z,5.27
2018-10-16T13:58:10.864Z,5.95
2018-10-16T14:00:39.331Z,5.47
2018-10-16T14:03:07.633Z,5.80
2018-10-16T14:05:36.012Z,5.63
2018-10-16T14:08:04.305Z,5.80
2018-10-16T14:10:32.916Z,5.67
2018-10-16T14:13:01.180Z,5.70
2018-10-16T14:15:29.790Z,5.90
2018-10-16T14:17:58.189Z,5.50
2018-10-16T14:20:26.799Z,5.47
2018-10-16T14:22:55.059Z,7.23
2018-10-16T14:25:23.616Z,5.45
2018-10-16T14:27:52.590Z,6.07
2018-10-16T14:30:21.284Z,5.72
2018-10-16T14:32:50.025Z,6.53
2018-10-16T14:35:18.311Z,6.50
2018-10-16T14:37:46.619Z,6.23
2018-10-16T14:40:16.235Z,6.20
2018-10-16T14:42:44.813Z,6.63
2018-10-16T14:45:13.813Z,5.93
2018-10-16T14:47:42.663Z,6.20
2018-10-16T14:50:12.159Z,5.70
2018-10-16T14:52:40.565Z,5.83
2018-10-16T14:55:09.006Z,5.83
2018-10-16T14:57:37.738Z,5.63
2018-10-16T15:00:08.493Z,5.80
2018-10-16T15:02:36.790Z,5.17
2018-10-16T15:05:06.469Z,5.07
2018-10-16T15:07:34.895Z,6.30
2018-10-16T15:10:04.026Z,6.60
2018-10-16T15:12:33.409Z,6.10
2018-10-16T15:15:02.917Z,6.60
2018-10-16T15:17:31.704Z,4.90
2018-10-16T15:20:00.523Z,5.93
2018-10-16T15:22:29.279Z,5.70
2018-10-16T15:24:57.843Z,5.73
2018-10-16T15:27:27.808Z,5.90
2018-10-16T15:29:56.125Z,5.80
2018-10-16T15:32:24.471Z,5.80
2018-10-16T15:34:53.027Z,5.37
2018-10-16T15:37:21.621Z,5.57
2018-10-16T15:39:50.136Z,6.00
2018-10-16T15:42:18.638Z,5.80
2018-10-16T15:44:47.180Z,5.43
2018-10-16T15:47:15.784Z,6.07
2018-10-16T15:49:44.042Z,5.50
2018-10-16T15:52:12.467Z,7.23
2018-10-16T15:54:40.928Z,6.27
2018-10-16T15:57:09.231Z,5.83
2018-10-16T15:59:37.728Z,6.60
2018-10-16T16:02:06.587Z,4.97
2018-10-16T16:04:35.017Z,5.23
2018-10-16T16:07:03.360Z,5.23
2018-10-16T16:09:31.917Z,5.07
2018-10-16T16:12:00.316Z,6.20
2018-10-16T16:14:28.896Z,6.43
2018-10-16T16:16:57.792Z,6.67
2018-10-16T16:19:27.072Z,6.13
2018-10-16T16:21:55.388Z,8.10
2018-10-16T16:24:24.187Z,7.67
2018-10-16T16:26:52.497Z,7.83
2018-10-16T16:29:20.987Z,6.53
2018-10-16T16:31:49.304Z,6.60
2018-10-16T16:34:17.917Z,6.57
2018-10-16T16:36:46.504Z,7.70
2018-10-16T16:39:14.967Z,12.43
2018-10-16T16:41:43.715Z,12.23
2018-10-16T16:44:12.232Z,16.23
2018-10-16T16:46:41.180Z,16.20
2018-10-16T16:49:09.703Z,13.87
2018-10-16T16:51:38.551Z,13.93
2018-10-16T16:54:07.028Z,10.50
2018-10-16T16:56:35.490Z,9.17
2018-10-16T16:59:04.179Z,10.00
2018-10-16T17:01:32.715Z,9.43
2018-10-16T17:04:01.350Z,8.75
2018-10-16T17:06:30.103Z,9.30
2018-10-16T17:08:58.398Z,8.60
2018-10-16T17:11:26.764Z,8.93
2018-10-16T17:13:55.332Z,9.17
2018-10-16T17:16:23.970Z,9.20
2018-10-16T17:18:52.880Z,9.57
2018-10-16T17:21:21.179Z,10.80
2018-10-16T17:23:50.355Z,10.20
2018-10-16T17:26:19.387Z,9.70
2018-10-16T17:28:47.776Z,10.37
2018-10-16T17:31:16.667Z,10.70
2018-10-16T17:33:45.028Z,10.30
2018-10-16T17:36:13.777Z,9.30
2018-10-16T17:38:42.725Z,9.40
2018-10-16T17:41:11.273Z,9.13
2018-10-16T17:43:39.891Z,10.00
2018-10-16T17:46:08.544Z,9.63
2018-10-16T17:48:37.096Z,10.40
2018-10-16T17:51:05.445Z,11.30
2018-10-16T17:53:34.207Z,11.07
2018-10-16T17:56:02.765Z,9.60
2018-10-16T17:58:31.709Z,9.23
2018-10-16T18:00:59.977Z,11.10
2018-10-16T18:03:28.280Z,9.50
2018-10-16T18:05:56.615Z,12.20
2018-10-16T18:08:24.925Z,10.60
2018-10-16T18:10:53.192Z,11.10
2018-10-16T18:13:21.739Z,10.80
2018-10-16T18:15:50.250Z,11.63
2018-10-16T18:18:18.759Z,10.80
2018-10-16T18:20:47.230Z,11.83
2018-10-16T18:23:15.797Z,12.37
2018-10-16T18:25:44.173Z,11.23
2018-10-16T18:28:12.467Z,12.50
2018-10-16T18:30:41.045Z,12.20
2018-10-16T18:33:09.847Z,12.17
2018-10-16T18:35:38.311Z,13.10
2018-10-16T18:38:06.883Z,14.05
2018-10-16T18:40:35.472Z,13.77
2018-10-16T18:43:04.468Z,13.20
2018-10-16T18:45:32.744Z,14.00
2018-10-16T18:48:01.213Z,13.60
2018-10-16T18:50:29.785Z,12.73
2018-10-16T18:52:58.055Z,14.00
2018-10-16T18:55:26.435Z,12.27
2018-10-16T18:57:54.722Z,13.07
2018-10-16T19:00:23.350Z,12.90
2018-10-16T19:02:51.894Z,11.93
2018-10-16T19:05:20.373Z,12.90
2018-10-16T19:07:48.705Z,12.77
2018-10-16T19:10:17.173Z,11.87
2018-10-16T19:12:45.497Z,11.77
2018-10-16T19:15:15.556Z,13.00
2018-10-16T19:17:45.028Z,12.00
2018-10-16T19:20:14.705Z,11.87
2018-10-16T19:22:43.699Z,11.40
2018-10-16T19:25:13.127Z,12.00
2018-10-16T19:27:42.177Z,11.95
2018-10-16T19:30:11.893Z,12.13
2018-10-16T19:32:40.259Z,12.73
2018-10-16T19:35:10.180Z,13.03
2018-10-16T19:37:38.656Z,13.30
2018-10-16T19:40:07.092Z,11.73
2018-10-16T19:42:35.383Z,12.33
2018-10-16T19:45:04.042Z,12.53
2018-10-16T19:47:32.838Z,10.70
2018-10-16T19:50:01.457Z,11.10
2018-10-16T19:52:29.753Z,11.93
2018-10-16T19:54:58.116Z,12.07
2018-10-16T19:57:26.539Z,13.03
2018-10-16T19:59:55.077Z,12.53
2018-10-16T20:02:23.524Z,12.17
2018-10-16T20:04:51.912Z,11.57
2018-10-16T20:07:20.697Z,13.53
2018-10-16T20:09:49.816Z,12.43
2018-10-16T20:12:18.645Z,13.20
2018-10-16T20:14:46.927Z,11.47
2018-10-16T20:17:15.351Z,12.40
2018-10-16T20:19:44.031Z,13.60
2018-10-16T20:22:12.625Z,13.07
2018-10-16T20:24:40.984Z,14.27
2018-10-16T20:27:09.836Z,12.47
2018-10-16T20:29:38.580Z,13.77
2018-10-16T20:32:07.115Z,13.40
2018-10-16T20:34:36.602Z,13.48
2018-10-16T20:37:05.456Z,13.83
2018-10-16T20:39:33.954Z,13.07
2018-10-16T20:42:02.296Z,13.13
2018-10-16T20:44:30.783Z,12.77
2018-10-16T20:46:59.070Z,13.70
2018-10-16T20:49:27.471Z,13.47
2018-10-16T20:51:56.030Z,13.20
2018-10-16T20:54:24.352Z,13.40
2018-10-16T20:56:52.759Z,14.50
2018-10-16T20:59:21.045Z,15.00
2018-10-16T21:01:49.976Z,14.50
2018-10-16T21:04:18.373Z,14.60
2018-10-16T21:06:47.286Z,15.00
2018-10-16T21:09:16.152Z,14.80
2018-10-16T21:11:44.539Z,14.37
2018-10-16T21:14:13.103Z,14.67
2018-10-16T21:16:41.706Z,14.17
2018-10-16T21:19:10.299Z,14.95
2018-10-16T21:21:39.040Z,14.28
2018-10-16T21:24:07.463Z,13.63
2018-10-16T21:26:36.505Z,14.80
2018-10-16T21:29:05.197Z,14.97
2018-10-16T21:31:33.951Z,14.78
2018-10-16T21:34:02.499Z,15.90
2018-10-16T21:36:30.794Z,16.70
2018-10-16T21:38:59.158Z,15.90
2018-10-16T21:41:27.723Z,15.57
2018-10-16T21:43:55.996Z,15.07
2018-10-16T21:46:24.487Z,16.37
2018-10-16T21:48:52.771Z,16.37
2018-10-16T21:51:21.452Z,16.53
2018-10-16T21:53:49.928Z,15.20
2018-10-16T21:56:18.495Z,15.13
2018-10-16T21:58:46.821Z,15.17
2018-10-16T22:01:15.758Z,15.03
2018-10-16T22:03:44.490Z,13.93
2018-10-16T22:06:12.779Z,16.30
2018-10-16T22:08:41.539Z,14.53
2018-10-16T22:11:10.107Z,14.50
2018-10-16T22:13:38.800Z,15.47
2018-10-16T22:16:07.625Z,14.78
2018-10-16T22:18:36.179Z,15.18
2018-10-16T22:21:04.571Z,14.47
2018-10-16T22:23:33.008Z,14.10
2018-10-16T22:26:01.560Z,15.32
2018-10-16T22:28:30.058Z,14.20
2018-10-16T22:30:58.799Z,15.80
2018-10-16T22:33:27.286Z,15.00
2018-10-16T22:35:55.602Z,14.63
2018-10-16T22:38:23.930Z,14.30
2018-10-16T22:40:52.244Z,13.23
2018-10-16T22:43:20.561Z,16.17
2018-10-16T22:45:49.159Z,13.87
2018-10-16T22:48:17.810Z,16.50
2018-10-16T22:50:46.247Z,13.77
2018-10-16T22:53:15.178Z,15.37
2018-10-16T22:55:43.641Z,16.97
2018-10-16T22:58:12.347Z,13.80
2018-10-16T23:00:40.887Z,14.20
2018-10-16T23:03:09.312Z,15.50
2018-10-16T23:05:37.695Z,15.67
2018-10-16T23:08:06.526Z,14.20
2018-10-16T23:10:34.809Z,13.40
2018-10-16T23:13:06.792Z,16.17
2018-10-16T23:15:35.751Z,14.07
2018-10-16T23:18:04.676Z,14.07
2018-10-16T23:20:33.468Z,15.77
2018-10-16T23:23:01.890Z,13.20
2018-10-16T23:25:30.312Z,14.30
2018-10-16T23:27:58.943Z,14.37
2018-10-16T23:30:27.543Z,15.37
2018-10-16T23:32:55.915Z,14.50
2018-10-16T23:35:25.175Z,14.90
2018-10-16T23:37:53.869Z,15.67
2018-10-16T23:40:22.298Z,13.80
2018-10-16T23:42:50.861Z,14.70
2018-10-16T23:45:19.182Z,13.80
2018-10-16T23:47:47.464Z,14.83
2018-10-16T23:50:16.391Z,14.35
2018-10-16T23:52:44.883Z,14.33
2018-10-16T23:55:13.221Z,13.77
2018-10-16T23:57:41.966Z,15.77
